sensor_id;sensor_type;location;lat;lon;timestamp;pressure;altitude;pressure_sealevel;temperature;humidity
46722;BME280;32455;43.430;23.136;2022-10-26T00:02:19;98539.06;;;15.95;72.19
46722;BME280;32455;43.430;23.136;2022-10-26T00:05:05;98532.00;;;15.77;72.06
46722;BME280;32455;43.430;23.136;2022-10-26T00:07:50;98531.09;;;15.71;72.81
46722;BME280;32455;43.430;23.136;2022-10-26T00:10:37;98536.06;;;15.63;73.67
46722;BME280;32455;43.430;23.136;2022-10-26T00:13:23;98539.69;;;15.51;74.25
46722;BME280;32455;43.430;23.136;2022-10-26T00:16:10;98539.50;;;15.58;73.67
46722;BME280;32455;43.430;23.136;2022-10-26T00:18:56;98537.47;;;15.48;74.18
46722;BME280;32455;43.430;23.136;2022-10-26T00:21:42;98529.28;;;15.60;73.26
46722;BME280;32455;43.430;23.136;2022-10-26T00:24:27;98528.78;;;15.80;70.40
46722;BME280;32455;43.430;23.136;2022-10-26T00:27:12;98541.91;;;15.71;72.46
46722;BME280;32455;43.430;23.136;2022-10-26T00:29:58;98553.28;;;15.40;74.10
46722;BME280;32455;43.430;23.136;2022-10-26T00:32:43;98530.94;;;14.99;75.50
46722;BME280;32455;43.430;23.136;2022-10-26T00:35:28;98550.66;;;14.71;77.23
46722;BME280;32455;43.430;23.136;2022-10-26T00:38:14;98546.97;;;14.77;76.87
46722;BME280;32455;43.430;23.136;2022-10-26T00:40:59;98568.91;;;14.64;78.08
46722;BME280;32455;43.430;23.136;2022-10-26T00:43:44;98567.16;;;14.46;78.66
46722;BME280;32455;43.430;23.136;2022-10-26T00:46:35;98556.97;;;14.01;80.53
46722;BME280;32455;43.430;23.136;2022-10-26T00:49:21;98553.91;;;13.62;82.85
46722;BME280;32455;43.430;23.136;2022-10-26T00:52:07;98574.19;;;13.65;83.64
46722;BME280;32455;43.430;23.136;2022-10-26T00:54:53;98568.28;;;13.33;85.12
46722;BME280;32455;43.430;23.136;2022-10-26T00:57:39;98570.63;;;13.29;85.82
46722;BME280;32455;43.430;23.136;2022-10-26T01:00:24;98567.09;;;13.10;86.47
46722;BME280;32455;43.430;23.136;2022-10-26T01:03:10;98555.28;;;12.81;88.23
46722;BME280;32455;43.430;23.136;2022-10-26T01:05:56;98571.22;;;12.83;88.50
46722;BME280;32455;43.430;23.136;2022-10-26T01:08:42;98557.16;;;12.81;88.46
46722;BME280;32455;43.430;23.136;2022-10-26T01:11:29;98563.88;;;12.71;88.94
46722;BME280;32455;43.430;23.136;2022-10-26T01:14:15;98553.72;;;12.37;91.17
46722;BME280;32455;43.430;23.136;2022-10-26T01:20:24;98566.88;;;12.63;90.44
46722;BME280;32455;43.430;23.136;2022-10-26T01:23:29;98569.06;;;12.73;89.77
46722;BME280;32455;43.430;23.136;2022-10-26T01:33:10;98568.25;;;12.17;92.23
46722;BME280;32455;43.430;23.136;2022-10-26T01:36:22;98577.19;;;12.11;92.92
46722;BME280;32455;43.430;23.136;2022-10-26T01:39:16;98582.38;;;12.13;92.88
46722;BME280;32455;43.430;23.136;2022-10-26T01:42:07;98564.34;;;11.95;93.05
46722;BME280;32455;43.430;23.136;2022-10-26T01:45:03;98585.38;;;12.05;92.69
46722;BME280;32455;43.430;23.136;2022-10-26T01:47:51;98577.06;;;12.06;92.64
46722;BME280;32455;43.430;23.136;2022-10-26T01:50:41;98580.84;;;11.73;93.84
46722;BME280;32455;43.430;23.136;2022-10-26T01:53:28;98589.38;;;11.70;94.39
46722;BME280;32455;43.430;23.136;2022-10-26T01:56:20;98572.78;;;11.73;94.38
46722;BME280;32455;43.430;23.136;2022-10-26T01:59:31;98570.28;;;11.47;95.93
46722;BME280;32455;43.430;23.136;2022-10-26T02:02:42;98584.50;;;11.54;96.08
46722;BME280;32455;43.430;23.136;2022-10-26T02:09:07;98569.84;;;11.50;95.81
46722;BME280;32455;43.430;23.136;2022-10-26T02:12:02;98566.97;;;11.20;97.77
46722;BME280;32455;43.430;23.136;2022-10-26T02:17:52;98581.84;;;11.47;96.98
46722;BME280;32455;43.430;23.136;2022-10-26T02:20:45;98571.03;;;11.61;96.10
46722;BME280;32455;43.430;23.136;2022-10-26T02:23:34;98578.03;;;11.62;95.92
46722;BME280;32455;43.430;23.136;2022-10-26T02:26:23;98574.41;;;11.74;95.05
46722;BME280;32455;43.430;23.136;2022-10-26T02:29:13;98578.03;;;11.62;94.97
46722;BME280;32455;43.430;23.136;2022-10-26T02:32:00;98578.88;;;11.62;94.91
46722;BME280;32455;43.430;23.136;2022-10-26T02:34:48;98572.50;;;11.57;94.91
46722;BME280;32455;43.430;23.136;2022-10-26T02:37:36;98571.09;;;11.22;96.65
46722;BME280;32455;43.430;23.136;2022-10-26T02:40:25;98572.09;;;11.21;97.01
46722;BME280;32455;43.430;23.136;2022-10-26T02:43:13;98579.50;;;11.33;97.19
46722;BME280;32455;43.430;23.136;2022-10-26T02:46:04;98587.47;;;11.46;96.18
46722;BME280;32455;43.430;23.136;2022-10-26T02:48:51;98573.44;;;11.44;95.54
46722;BME280;32455;43.430;23.136;2022-10-26T02:54:45;98582.81;;;11.60;94.71
46722;BME280;32455;43.430;23.136;2022-10-26T02:57:41;98571.66;;;11.81;93.70
46722;BME280;32455;43.430;23.136;2022-10-26T03:00:30;98567.06;;;11.88;92.92
46722;BME280;32455;43.430;23.136;2022-10-26T03:03:16;98571.66;;;12.06;91.86
46722;BME280;32455;43.430;23.136;2022-10-26T03:06:04;98576.78;;;12.33;89.60
46722;BME280;32455;43.430;23.136;2022-10-26T03:08:50;98574.41;;;12.43;88.20
46722;BME280;32455;43.430;23.136;2022-10-26T03:11:35;98585.75;;;12.63;86.72
46722;BME280;32455;43.430;23.136;2022-10-26T03:14:20;98587.63;;;12.63;85.87
46722;BME280;32455;43.430;23.136;2022-10-26T03:17:07;98574.97;;;12.63;85.25
46722;BME280;32455;43.430;23.136;2022-10-26T03:19:52;98588.63;;;12.68;84.51
46722;BME280;32455;43.430;23.136;2022-10-26T03:22:37;98578.59;;;12.39;85.53
46722;BME280;32455;43.430;23.136;2022-10-26T03:25:23;98597.84;;;12.42;85.90
46722;BME280;32455;43.430;23.136;2022-10-26T03:28:08;98584.84;;;12.33;85.80
46722;BME280;32455;43.430;23.136;2022-10-26T03:30:53;98597.00;;;12.42;85.38
46722;BME280;32455;43.430;23.136;2022-10-26T03:33:39;98597.50;;;12.32;85.65
46722;BME280;32455;43.430;23.136;2022-10-26T03:36:24;98600.97;;;12.39;85.27
46722;BME280;32455;43.430;23.136;2022-10-26T03:39:09;98595.72;;;12.44;85.01
46722;BME280;32455;43.430;23.136;2022-10-26T03:41:55;98594.38;;;12.53;84.46
46722;BME280;32455;43.430;23.136;2022-10-26T03:44:41;98593.50;;;12.60;84.56
46722;BME280;32455;43.430;23.136;2022-10-26T03:47:28;98585.72;;;12.51;84.68
46722;BME280;32455;43.430;23.136;2022-10-26T03:50:16;98605.53;;;12.57;83.84
46722;BME280;32455;43.430;23.136;2022-10-26T03:53:02;98603.91;;;12.56;83.69
46722;BME280;32455;43.430;23.136;2022-10-26T03:55:48;98615.25;;;12.40;83.26
46722;BME280;32455;43.430;23.136;2022-10-26T03:58:33;98609.44;;;12.43;83.80
46722;BME280;32455;43.430;23.136;2022-10-26T04:01:20;98587.53;;;12.14;83.88
46722;BME280;32455;43.430;23.136;2022-10-26T04:04:04;98610.56;;;12.35;82.34
46722;BME280;32455;43.430;23.136;2022-10-26T04:06:51;98602.97;;;12.25;82.71
46722;BME280;32455;43.430;23.136;2022-10-26T04:09:36;98596.97;;;12.05;83.73
46722;BME280;32455;43.430;23.136;2022-10-26T04:12:21;98609.19;;;12.08;83.62
46722;BME280;32455;43.430;23.136;2022-10-26T04:15:08;98605.97;;;11.92;83.89
46722;BME280;32455;43.430;23.136;2022-10-26T04:17:58;98613.72;;;11.82;83.88
46722;BME280;32455;43.430;23.136;2022-10-26T04:20:44;98613.72;;;11.82;83.98
46722;BME280;32455;43.430;23.136;2022-10-26T04:23:29;98610.34;;;11.62;83.63
46722;BME280;32455;43.430;23.136;2022-10-26T04:26:14;98621.28;;;11.67;84.58
46722;BME280;32455;43.430;23.136;2022-10-26T04:28:59;98615.94;;;11.60;83.83
46722;BME280;32455;43.430;23.136;2022-10-26T04:31:46;98629.03;;;11.57;84.16
46722;BME280;32455;43.430;23.136;2022-10-26T04:34:31;98616.25;;;11.45;84.63
46722;BME280;32455;43.430;23.136;2022-10-26T04:37:17;98625.53;;;11.49;84.94
46722;BME280;32455;43.430;23.136;2022-10-26T04:40:03;98627.56;;;11.22;85.51
46722;BME280;32455;43.430;23.136;2022-10-26T04:42:49;98631.66;;;11.32;85.34
46722;BME280;32455;43.430;23.136;2022-10-26T04:45:34;98630.59;;;11.33;85.34
46722;BME280;32455;43.430;23.136;2022-10-26T04:48:19;98634.78;;;11.28;85.29
46722;BME280;32455;43.430;23.136;2022-10-26T04:51:06;98634.59;;;11.23;85.67
46722;BME280;32455;43.430;23.136;2022-10-26T04:53:54;98612.13;;;11.04;86.04
46722;BME280;32455;43.430;23.136;2022-10-26T04:56:39;98642.50;;;11.18;85.63
46722;BME280;32455;43.430;23.136;2022-10-26T04:59:25;98636.88;;;11.26;85.14
46722;BME280;32455;43.430;23.136;2022-10-26T05:02:10;98637.75;;;11.14;85.37
46722;BME280;32455;43.430;23.136;2022-10-26T05:04:56;98648.66;;;11.25;85.46
46722;BME280;32455;43.430;23.136;2022-10-26T05:07:41;98652.16;;;11.26;85.69
46722;BME280;32455;43.430;23.136;2022-10-26T05:10:27;98654.44;;;11.29;85.60
46722;BME280;32455;43.430;23.136;2022-10-26T05:13:13;98655.72;;;11.51;83.77
46722;BME280;32455;43.430;23.136;2022-10-26T05:15:58;98634.81;;;11.53;83.21
46722;BME280;32455;43.430;23.136;2022-10-26T05:18:46;98652.66;;;11.79;83.06
46722;BME280;32455;43.430;23.136;2022-10-26T05:21:32;98636.38;;;11.68;82.51
46722;BME280;32455;43.430;23.136;2022-10-26T05:24:18;98646.44;;;11.79;82.05
46722;BME280;32455;43.430;23.136;2022-10-26T05:27:03;98654.53;;;11.79;81.55
46722;BME280;32455;43.430;23.136;2022-10-26T05:29:49;98657.66;;;11.76;81.80
46722;BME280;32455;43.430;23.136;2022-10-26T05:32:34;98661.97;;;11.84;81.73
46722;BME280;32455;43.430;23.136;2022-10-26T05:35:20;98659.84;;;11.92;81.09
46722;BME280;32455;43.430;23.136;2022-10-26T05:38:10;98658.88;;;11.80;81.00
46722;BME280;32455;43.430;23.136;2022-10-26T05:40:56;98670.69;;;11.79;81.57
46722;BME280;32455;43.430;23.136;2022-10-26T05:43:46;98655.84;;;11.70;82.12
46722;BME280;32455;43.430;23.136;2022-10-26T05:46:31;98672.41;;;11.67;82.53
46722;BME280;32455;43.430;23.136;2022-10-26T05:49:16;98657.19;;;11.54;83.11
46722;BME280;32455;43.430;23.136;2022-10-26T05:52:04;98678.88;;;11.59;83.13
46722;BME280;32455;43.430;23.136;2022-10-26T05:54:50;98671.88;;;11.51;83.61
46722;BME280;32455;43.430;23.136;2022-10-26T05:57:36;98692.34;;;11.59;83.71
46722;BME280;32455;43.430;23.136;2022-10-26T06:00:24;98688.25;;;11.82;81.81
46722;BME280;32455;43.430;23.136;2022-10-26T06:05:58;98693.25;;;12.10;80.04
46722;BME280;32455;43.430;23.136;2022-10-26T06:08:44;98701.06;;;12.18;79.86
46722;BME280;32455;43.430;23.136;2022-10-26T06:11:30;98695.97;;;12.35;78.58
46722;BME280;32455;43.430;23.136;2022-10-26T06:14:16;98686.34;;;12.64;78.10
46722;BME280;32455;43.430;23.136;2022-10-26T06:23:31;98708.13;;;13.24;79.91
46722;BME280;32455;43.430;23.136;2022-10-26T06:32:21;98697.53;;;13.83;77.67
46722;BME280;32455;43.430;23.136;2022-10-26T06:35:19;98721.97;;;14.18;77.01
46722;BME280;32455;43.430;23.136;2022-10-26T06:38:16;98713.28;;;14.27;75.49
46722;BME280;32455;43.430;23.136;2022-10-26T06:41:04;98722.38;;;14.57;73.69
46722;BME280;32455;43.430;23.136;2022-10-26T06:43:50;98719.88;;;14.55;74.46
46722;BME280;32455;43.430;23.136;2022-10-26T06:46:45;98732.00;;;14.76;74.42
46722;BME280;32455;43.430;23.136;2022-10-26T06:49:43;98732.94;;;14.93;74.25
46722;BME280;32455;43.430;23.136;2022-10-26T06:52:41;98723.53;;;15.08;72.13
46722;BME280;32455;43.430;23.136;2022-10-26T06:55:43;98743.94;;;15.27;71.76
46722;BME280;32455;43.430;23.136;2022-10-26T06:58:33;98751.06;;;15.45;68.66
46722;BME280;32455;43.430;23.136;2022-10-26T07:01:19;98736.59;;;15.51;67.37
46722;BME280;32455;43.430;23.136;2022-10-26T07:04:04;98732.00;;;15.51;67.10
46722;BME280;32455;43.430;23.136;2022-10-26T07:06:49;98739.50;;;15.61;68.89
46722;BME280;32455;43.430;23.136;2022-10-26T07:09:35;98742.66;;;15.58;69.45
46722;BME280;32455;43.430;23.136;2022-10-26T07:12:20;98740.03;;;15.75;69.18
46722;BME280;32455;43.430;23.136;2022-10-26T07:15:06;98747.88;;;15.88;68.14
46722;BME280;32455;43.430;23.136;2022-10-26T07:17:52;98736.22;;;15.88;68.13
46722;BME280;32455;43.430;23.136;2022-10-26T07:20:39;98755.66;;;16.13;67.79
46722;BME280;32455;43.430;23.136;2022-10-26T07:23:25;98763.22;;;16.11;67.38
46722;BME280;32455;43.430;23.136;2022-10-26T07:26:10;98751.63;;;15.99;67.62
46722;BME280;32455;43.430;23.136;2022-10-26T07:28:55;98749.91;;;16.10;67.01
46722;BME280;32455;43.430;23.136;2022-10-26T07:31:41;98754.13;;;16.34;65.18
46722;BME280;32455;43.430;23.136;2022-10-26T07:34:27;98746.81;;;16.51;63.53
46722;BME280;32455;43.430;23.136;2022-10-26T07:37:12;98765.31;;;16.71;62.34
46722;BME280;32455;43.430;23.136;2022-10-26T07:39:56;98739.16;;;16.82;63.58
46722;BME280;32455;43.430;23.136;2022-10-26T07:42:42;98762.94;;;16.92;63.30
46722;BME280;32455;43.430;23.136;2022-10-26T07:45:28;98754.19;;;17.28;61.22
46722;BME280;32455;43.430;23.136;2022-10-26T07:48:14;98753.97;;;17.30;60.37
46722;BME280;32455;43.430;23.136;2022-10-26T07:51:03;98750.03;;;17.43;60.18
46722;BME280;32455;43.430;23.136;2022-10-26T07:53:49;98751.38;;;17.40;58.84
46722;BME280;32455;43.430;23.136;2022-10-26T07:56:34;98744.72;;;17.53;59.75
46722;BME280;32455;43.430;23.136;2022-10-26T07:59:20;98764.31;;;17.55;59.11
46722;BME280;32455;43.430;23.136;2022-10-26T08:02:05;98755.25;;;17.71;57.49
46722;BME280;32455;43.430;23.136;2022-10-26T08:04:50;98755.66;;;17.80;58.53
46722;BME280;32455;43.430;23.136;2022-10-26T08:07:40;98756.75;;;17.79;57.31
46722;BME280;32455;43.430;23.136;2022-10-26T08:10:26;98765.41;;;17.76;57.71
46722;BME280;32455;43.430;23.136;2022-10-26T08:13:12;98773.28;;;17.99;58.76
46722;BME280;32455;43.430;23.136;2022-10-26T08:15:59;98775.78;;;18.06;57.53
46722;BME280;32455;43.430;23.136;2022-10-26T08:18:48;98767.47;;;18.18;57.13
46722;BME280;32455;43.430;23.136;2022-10-26T08:21:33;98758.09;;;18.36;56.68
46722;BME280;32455;43.430;23.136;2022-10-26T08:24:19;98774.91;;;18.27;56.58
46722;BME280;32455;43.430;23.136;2022-10-26T08:27:05;98769.72;;;18.26;56.52
46722;BME280;32455;43.430;23.136;2022-10-26T08:29:50;98758.84;;;18.26;55.79
46722;BME280;32455;43.430;23.136;2022-10-26T08:32:36;98742.94;;;18.13;56.88
46722;BME280;32455;43.430;23.136;2022-10-26T08:35:21;98755.16;;;18.10;56.94
46722;BME280;32455;43.430;23.136;2022-10-26T08:38:07;98757.72;;;18.22;56.31
46722;BME280;32455;43.430;23.136;2022-10-26T08:40:53;98753.13;;;18.27;56.34
46722;BME280;32455;43.430;23.136;2022-10-26T08:43:51;98751.34;;;18.38;56.35
46722;BME280;32455;43.430;23.136;2022-10-26T08:46:42;98777.97;;;18.68;54.52
46722;BME280;32455;43.430;23.136;2022-10-26T08:49:35;98760.44;;;18.54;53.49
46722;BME280;32455;43.430;23.136;2022-10-26T08:52:35;98765.19;;;18.69;53.15
46722;BME280;32455;43.430;23.136;2022-10-26T08:55:25;98754.69;;;18.83;53.78
46722;BME280;32455;43.430;23.136;2022-10-26T08:58:15;98754.16;;;18.81;51.68
46722;BME280;32455;43.430;23.136;2022-10-26T09:01:02;98761.25;;;18.87;47.03
46722;BME280;32455;43.430;23.136;2022-10-26T09:03:49;98748.50;;;18.92;47.12
46722;BME280;32455;43.430;23.136;2022-10-26T09:06:40;98771.25;;;19.18;45.04
46722;BME280;32455;43.430;23.136;2022-10-26T09:12:52;98764.78;;;19.30;45.25
46722;BME280;32455;43.430;23.136;2022-10-26T09:22:14;98762.94;;;19.40;43.57
46722;BME280;32455;43.430;23.136;2022-10-26T09:25:11;98747.97;;;19.48;44.08
46722;BME280;32455;43.430;23.136;2022-10-26T09:28:00;98767.09;;;19.58;42.96
46722;BME280;32455;43.430;23.136;2022-10-26T09:30:47;98750.47;;;19.60;44.35
46722;BME280;32455;43.430;23.136;2022-10-26T09:33:38;98750.50;;;19.65;44.34
46722;BME280;32455;43.430;23.136;2022-10-26T09:36:25;98748.06;;;19.63;44.04
46722;BME280;32455;43.430;23.136;2022-10-26T09:39:18;98760.38;;;19.81;44.50
46722;BME280;32455;43.430;23.136;2022-10-26T09:45:02;98760.72;;;20.00;42.93
46722;BME280;32455;43.430;23.136;2022-10-26T09:47:51;98768.34;;;20.03;42.21
46722;BME280;32455;43.430;23.136;2022-10-26T09:50:39;98753.31;;;19.95;41.97
46722;BME280;32455;43.430;23.136;2022-10-26T09:53:27;98760.16;;;20.08;42.26
46722;BME280;32455;43.430;23.136;2022-10-26T09:56:13;98738.63;;;20.12;41.55
46722;BME280;32455;43.430;23.136;2022-10-26T09:59:04;98755.00;;;20.17;41.26
46722;BME280;32455;43.430;23.136;2022-10-26T10:01:50;98759.91;;;20.20;41.37
46722;BME280;32455;43.430;23.136;2022-10-26T10:04:45;98747.34;;;20.04;41.16
46722;BME280;32455;43.430;23.136;2022-10-26T10:07:31;98753.59;;;20.04;42.07
46722;BME280;32455;43.430;23.136;2022-10-26T10:10:21;98760.44;;;20.07;41.84
46722;BME280;32455;43.430;23.136;2022-10-26T10:13:18;98750.91;;;20.09;41.44
46722;BME280;32455;43.430;23.136;2022-10-26T10:18:54;98754.25;;;20.57;42.40
46722;BME280;32455;43.430;23.136;2022-10-26T10:21:44;98745.19;;;20.41;41.98
46722;BME280;32455;43.430;23.136;2022-10-26T10:24:35;98754.47;;;20.40;40.97
46722;BME280;32455;43.430;23.136;2022-10-26T10:27:20;98744.66;;;20.44;41.44
46722;BME280;32455;43.430;23.136;2022-10-26T10:30:21;98736.47;;;20.60;40.61
46722;BME280;32455;43.430;23.136;2022-10-26T10:33:10;98732.38;;;20.72;39.67
46722;BME280;32455;43.430;23.136;2022-10-26T10:35:56;98738.13;;;20.61;39.40
46722;BME280;32455;43.430;23.136;2022-10-26T10:38:44;98726.91;;;20.67;39.46
46722;BME280;32455;43.430;23.136;2022-10-26T10:41:32;98725.81;;;20.79;39.99
46722;BME280;32455;43.430;23.136;2022-10-26T10:44:28;98721.72;;;20.86;39.06
46722;BME280;32455;43.430;23.136;2022-10-26T10:47:21;98729.09;;;20.91;38.79
46722;BME280;32455;43.430;23.136;2022-10-26T10:50:16;98717.06;;;20.87;39.01
46722;BME280;32455;43.430;23.136;2022-10-26T10:56:41;98725.53;;;20.90;37.95
46722;BME280;32455;43.430;23.136;2022-10-26T10:59:58;98716.81;;;20.78;36.37
46722;BME280;32455;43.430;23.136;2022-10-26T11:03:02;98714.88;;;20.89;36.95
46722;BME280;32455;43.430;23.136;2022-10-26T11:06:10;98708.84;;;20.92;37.41
46722;BME280;32455;43.430;23.136;2022-10-26T11:09:27;98708.28;;;21.00;38.33
46722;BME280;32455;43.430;23.136;2022-10-26T11:12:23;98711.00;;;21.05;36.56
46722;BME280;32455;43.430;23.136;2022-10-26T11:15:17;98708.00;;;21.01;36.95
46722;BME280;32455;43.430;23.136;2022-10-26T11:18:14;98706.59;;;21.14;36.14
46722;BME280;32455;43.430;23.136;2022-10-26T11:21:31;98686.38;;;21.15;36.10
46722;BME280;32455;43.430;23.136;2022-10-26T11:28:05;98702.75;;;21.25;36.62
46722;BME280;32455;43.430;23.136;2022-10-26T11:31:01;98705.22;;;21.22;36.87
46722;BME280;32455;43.430;23.136;2022-10-26T11:36:54;98690.41;;;21.28;35.75
46722;BME280;32455;43.430;23.136;2022-10-26T11:39:44;98683.38;;;21.17;35.80
46722;BME280;32455;43.430;23.136;2022-10-26T11:42:40;98683.41;;;21.12;35.84
46722;BME280;32455;43.430;23.136;2022-10-26T11:45:40;98691.03;;;21.15;36.47
46722;BME280;32455;43.430;23.136;2022-10-26T11:49:03;98683.91;;;21.19;35.75
46722;BME280;32455;43.430;23.136;2022-10-26T11:54:54;98693.38;;;21.47;34.93
46722;BME280;32455;43.430;23.136;2022-10-26T11:57:39;98701.06;;;21.40;35.21
46722;BME280;32455;43.430;23.136;2022-10-26T12:00:26;98680.09;;;21.20;35.47
46722;BME280;32455;43.430;23.136;2022-10-26T12:03:19;98699.19;;;21.35;34.95
46722;BME280;32455;43.430;23.136;2022-10-26T12:06:08;98681.75;;;21.16;35.52
46722;BME280;32455;43.430;23.136;2022-10-26T12:09:00;98685.78;;;21.23;36.25
46722;BME280;32455;43.430;23.136;2022-10-26T12:12:01;98676.78;;;21.23;36.45
46722;BME280;32455;43.430;23.136;2022-10-26T12:15:22;98692.06;;;21.24;36.44
46722;BME280;32455;43.430;23.136;2022-10-26T12:21:16;98683.91;;;21.19;36.25
46722;BME280;32455;43.430;23.136;2022-10-26T12:33:47;98681.97;;;21.19;36.08
46722;BME280;32455;43.430;23.136;2022-10-26T12:39:49;98666.13;;;21.21;35.33
46722;BME280;32455;43.430;23.136;2022-10-26T12:42:40;98686.06;;;21.32;34.92
46722;BME280;32455;43.430;23.136;2022-10-26T12:45:25;98680.06;;;21.25;34.79
46722;BME280;32455;43.430;23.136;2022-10-26T12:54:39;98683.63;;;21.25;34.89
46722;BME280;32455;43.430;23.136;2022-10-26T13:00:43;98681.16;;;21.34;34.96
46722;BME280;32455;43.430;23.136;2022-10-26T13:12:59;98688.97;;;21.56;34.93
46722;BME280;32455;43.430;23.136;2022-10-26T13:15:54;98683.59;;;21.36;35.65
46722;BME280;32455;43.430;23.136;2022-10-26T13:18:44;98684.66;;;21.40;34.80
46722;BME280;32455;43.430;23.136;2022-10-26T13:21:34;98699.72;;;21.27;34.52
46722;BME280;32455;43.430;23.136;2022-10-26T13:24:31;98678.72;;;21.17;34.31
46722;BME280;32455;43.430;23.136;2022-10-26T13:27:23;98690.22;;;21.14;35.53
46722;BME280;32455;43.430;23.136;2022-10-26T13:33:22;98683.75;;;20.90;35.58
46722;BME280;32455;43.430;23.136;2022-10-26T13:36:42;98698.47;;;20.99;33.94
46722;BME280;32455;43.430;23.136;2022-10-26T13:39:37;98691.09;;;20.94;34.73
46722;BME280;32455;43.430;23.136;2022-10-26T13:42:42;98698.44;;;21.04;34.24
46722;BME280;32455;43.430;23.136;2022-10-26T13:45:44;98693.78;;;21.05;34.29
46722;BME280;32455;43.430;23.136;2022-10-26T13:48:38;98711.59;;;20.92;34.03
46722;BME280;32455;43.430;23.136;2022-10-26T13:51:35;98703.66;;;20.85;35.12
46722;BME280;32455;43.430;23.136;2022-10-26T14:00:16;98720.09;;;20.70;35.36
46722;BME280;32455;43.430;23.136;2022-10-26T14:03:17;98713.00;;;20.54;36.56
46722;BME280;32455;43.430;23.136;2022-10-26T14:06:21;98703.19;;;20.58;35.35
46722;BME280;32455;43.430;23.136;2022-10-26T14:09:13;98707.25;;;20.55;35.20
46722;BME280;32455;43.430;23.136;2022-10-26T14:12:00;98719.81;;;20.71;34.94
46722;BME280;32455;43.430;23.136;2022-10-26T14:14:46;98716.84;;;20.53;35.13
46722;BME280;32455;43.430;23.136;2022-10-26T14:17:32;98710.53;;;20.37;35.62
46722;BME280;32455;43.430;23.136;2022-10-26T14:20:19;98724.75;;;20.49;35.50
46722;BME280;32455;43.430;23.136;2022-10-26T14:23:28;98732.13;;;20.54;36.96
46722;BME280;32455;43.430;23.136;2022-10-26T14:26:23;98729.91;;;20.25;37.95
46722;BME280;32455;43.430;23.136;2022-10-26T14:29:16;98731.81;;;20.09;37.49
46722;BME280;32455;43.430;23.136;2022-10-26T14:32:28;98735.88;;;19.96;40.57
46722;BME280;32455;43.430;23.136;2022-10-26T14:35:25;98740.47;;;19.81;38.98
46722;BME280;32455;43.430;23.136;2022-10-26T14:41:02;98730.66;;;19.85;39.54
46722;BME280;32455;43.430;23.136;2022-10-26T14:43:48;98727.13;;;19.79;40.03
46722;BME280;32455;43.430;23.136;2022-10-26T14:46:34;98736.41;;;19.83;39.96
46722;BME280;32455;43.430;23.136;2022-10-26T14:49:22;98733.91;;;19.66;41.54
46722;BME280;32455;43.430;23.136;2022-10-26T14:52:18;98739.22;;;19.36;42.13
46722;BME280;32455;43.430;23.136;2022-10-26T14:55:12;98748.41;;;19.24;43.75
46722;BME280;32455;43.430;23.136;2022-10-26T14:58:14;98735.44;;;18.94;46.93
46722;BME280;32455;43.430;23.136;2022-10-26T15:04:27;98727.72;;;18.12;49.07
46722;BME280;32455;43.430;23.136;2022-10-26T15:07:16;98745.25;;;18.26;49.85
46722;BME280;32455;43.430;23.136;2022-10-26T15:10:04;98750.72;;;17.99;50.76
46722;BME280;32455;43.430;23.136;2022-10-26T15:12:49;98743.75;;;17.64;51.84
46722;BME280;32455;43.430;23.136;2022-10-26T15:15:34;98758.81;;;17.50;52.83
46722;BME280;32455;43.430;23.136;2022-10-26T15:18:26;98741.63;;;17.22;54.03
46722;BME280;32455;43.430;23.136;2022-10-26T15:27:16;98758.09;;;16.77;56.05
46722;BME280;32455;43.430;23.136;2022-10-26T15:33:19;98759.13;;;16.42;57.47
46722;BME280;32455;43.430;23.136;2022-10-26T15:36:17;98774.69;;;16.64;56.98
46722;BME280;32455;43.430;23.136;2022-10-26T15:39:03;98766.88;;;16.50;57.10
46722;BME280;32455;43.430;23.136;2022-10-26T15:41:48;98767.28;;;16.42;57.35
46722;BME280;32455;43.430;23.136;2022-10-26T15:44:36;98755.41;;;15.98;59.38
46722;BME280;32455;43.430;23.136;2022-10-26T15:47:28;98788.19;;;16.13;59.86
46722;BME280;32455;43.430;23.136;2022-10-26T15:50:19;98786.72;;;15.77;61.06
46722;BME280;32455;43.430;23.136;2022-10-26T15:53:12;98788.84;;;15.63;62.24
46722;BME280;32455;43.430;23.136;2022-10-26T15:56:01;98787.25;;;15.39;62.76
46722;BME280;32455;43.430;23.136;2022-10-26T15:58:49;98793.50;;;15.39;63.12
46722;BME280;32455;43.430;23.136;2022-10-26T16:01:35;98786.53;;;15.43;62.84
46722;BME280;32455;43.430;23.136;2022-10-26T16:04:20;98788.69;;;15.30;63.21
46722;BME280;32455;43.430;23.136;2022-10-26T16:07:11;98797.88;;;15.17;64.46
46722;BME280;32455;43.430;23.136;2022-10-26T16:09:58;98811.31;;;15.00;65.21
46722;BME280;32455;43.430;23.136;2022-10-26T16:12:43;98812.00;;;14.95;65.61
46722;BME280;32455;43.430;23.136;2022-10-26T16:15:30;98817.88;;;14.81;66.35
46722;BME280;32455;43.430;23.136;2022-10-26T16:18:16;98795.97;;;14.59;67.02
46722;BME280;32455;43.430;23.136;2022-10-26T16:21:01;98812.31;;;14.64;67.15
46722;BME280;32455;43.430;23.136;2022-10-26T16:23:49;98833.25;;;14.57;67.77
46722;BME280;32455;43.430;23.136;2022-10-26T16:26:35;98812.63;;;14.44;67.84
46722;BME280;32455;43.430;23.136;2022-10-26T16:29:20;98796.16;;;14.03;68.63
46722;BME280;32455;43.430;23.136;2022-10-26T16:32:06;98822.84;;;14.12;69.22
46722;BME280;32455;43.430;23.136;2022-10-26T16:34:51;98829.00;;;13.89;70.18
46722;BME280;32455;43.430;23.136;2022-10-26T16:37:37;98841.81;;;13.93;69.98
46722;BME280;32455;43.430;23.136;2022-10-26T16:40:22;98825.97;;;13.67;70.79
46722;BME280;32455;43.430;23.136;2022-10-26T16:43:08;98829.94;;;13.64;71.28
46722;BME280;32455;43.430;23.136;2022-10-26T16:45:53;98838.53;;;13.73;70.53
46722;BME280;32455;43.430;23.136;2022-10-26T16:48:40;98831.19;;;13.62;70.69
46722;BME280;32455;43.430;23.136;2022-10-26T16:51:26;98854.84;;;13.66;71.06